Sunbeam, Idaho
Current Conditions -  °F | °C
As of 6:55 AM on Thursday 23 Oct 2014 (Local Time) from KLLJ Reporting Station
Overcast Overcast  
Wind Chill: 50°   Ceiling: 5500
Heat Index: 50°   Visibility: 10mi
Dew Point: 37°   Wind: 10mph
Humidity: 61%   Direction: 200°SSW
Pressure: 30.04"   Gusts: NA
Location:  44.3379°N, 114.824°W
Report Text: KLLJ 231255Z AUTO 20009KT 10SM BKN055 BKN065 OVC090 10/03 A3004 RMK AO2 SLP147 T01000028
Loading
Personal Weather Stations






























Interactive Weather Map
Tropical Storm Tracking
New forecast layout! Learn more

10-Day Weather Forecast

Advertisements
Track Severe Weather on mobile